»·PEaware :: SWA249 KLAS-KSFO

SWA249 :: KLAS-KSFO

FLIGHT INFORMATION

Flight Status: Arrived
Operator:
Southwest Airlines
More flights by this operator :: More flights under this callsign
Pilot: Cody B. (17747)
Aircraft: BOEING 737-800
(B738)
More flights by this aircraft type
Origin: KLAS McCarran Intl
United States
Destination: KSFO San Francisco Intl
United States
More flights between these airports :: More routes between these airports
Route: +SHEAD1 KENNO RUSME DYAMD3
File this flight plan on PilotEdge
Remarks:
Altitude:
(Current/Filed)
36,000ft
Speed:
(Current/Filed)
463kts
Departed: 07-Aug-18 02:02 PM
Arrived: 07-Aug-18 03:17 PM
Distance/Time
Traveled:
359nm/1:14
Distance/Time
To Go:
Arrived

Flight Plot

Page will automatically refresh every two minutes.

Flight plan parsing failed; only flown route is shown


Map Options




Map Legend


Flown Route
Filed Route
Departure Airport
Arrival Airport
Navaid (VOR, NDB)
Fix

Horizontal Profiles

Position Reports

Time Latitude Longitude Heading Altitude Ground
Speed
07-Aug-18 13:11 36.079935 -115.147123 61 2189ft 0kts
07-Aug-18 13:12 36.079935 -115.147123 61 2189ft 0kts
07-Aug-18 13:13 36.079935 -115.147123 61 2189ft 0kts
07-Aug-18 13:14 36.079935 -115.147123 61 2189ft 0kts
07-Aug-18 13:15 36.079935 -115.147123 61 2189ft 0kts
07-Aug-18 13:16 36.079935 -115.147123 61 2189ft 0kts
07-Aug-18 13:17 36.079935 -115.147123 61 2189ft 0kts
07-Aug-18 13:18 36.079935 -115.147123 61 2189ft 0kts
07-Aug-18 13:19 36.079935 -115.147123 61 2189ft 0kts
07-Aug-18 13:20 36.079935 -115.147123 61 2189ft 0kts
07-Aug-18 13:21 36.079935 -115.147123 61 2189ft 0kts
07-Aug-18 13:22 36.079935 -115.147123 61 2189ft 0kts
07-Aug-18 13:23 36.079935 -115.147123 61 2189ft 0kts
07-Aug-18 13:24 36.079935 -115.147123 61 2189ft 0kts
07-Aug-18 13:25 36.079935 -115.147123 61 2189ft 0kts
07-Aug-18 13:26 36.079935 -115.147123 61 2189ft 0kts
07-Aug-18 13:27 36.079935 -115.147123 61 2189ft 0kts
07-Aug-18 13:28 36.079935 -115.147123 61 2189ft 0kts
07-Aug-18 13:29 36.079935 -115.147123 61 2189ft 0kts
07-Aug-18 13:30 36.079935 -115.147123 61 2189ft 0kts
07-Aug-18 13:31 36.079935 -115.147123 61 2189ft 0kts
07-Aug-18 13:32 36.079935 -115.147123 61 2189ft 0kts
07-Aug-18 13:33 36.079935 -115.147123 61 2189ft 0kts
07-Aug-18 13:34 36.079935 -115.147123 61 2189ft 0kts
07-Aug-18 13:35 36.079935 -115.147123 61 2189ft 0kts
07-Aug-18 13:36 36.079935 -115.147123 61 2189ft 0kts
07-Aug-18 13:37 36.079935 -115.147123 61 2189ft 0kts
07-Aug-18 13:38 36.079935 -115.147123 61 2189ft 0kts
07-Aug-18 13:39 36.079935 -115.147123 61 2189ft 0kts
07-Aug-18 13:40 36.079935 -115.147123 61 2189ft 0kts
07-Aug-18 13:41 36.079935 -115.147123 61 2189ft 0kts
07-Aug-18 13:42 36.079935 -115.147123 61 2189ft 0kts
07-Aug-18 13:43 36.079935 -115.147123 61 2189ft 0kts
07-Aug-18 13:44 36.079935 -115.147123 61 2189ft 0kts
07-Aug-18 13:45 36.079935 -115.147123 61 2189ft 0kts
07-Aug-18 13:46 36.079935 -115.147123 61 2189ft 0kts
07-Aug-18 13:47 36.079768 -115.147326 68 2189ft 2kts
07-Aug-18 13:48 36.079940 -115.147899 157 2189ft 1kts
07-Aug-18 13:49 36.079991 -115.147923 156 2188ft 0kts
07-Aug-18 13:50 36.079991 -115.147923 156 2188ft 0kts
07-Aug-18 13:51 36.079979 -115.147916 156 2188ft 0kts
07-Aug-18 13:52 36.079801 -115.147813 153 2188ft 1kts
07-Aug-18 13:53 36.079359 -115.147540 155 2188ft 0kts
07-Aug-18 13:54 36.078686 -115.147247 178 2188ft 7kts
07-Aug-18 13:55 36.077886 -115.148862 273 2188ft 9kts
07-Aug-18 13:56 36.078025 -115.153744 268 2189ft 16kts
07-Aug-18 13:57 36.078017 -115.159553 271 2189ft 15kts
07-Aug-18 13:58 36.077421 -115.161265 181 2189ft 0kts
07-Aug-18 13:59 36.077421 -115.161265 181 2189ft 0kts
07-Aug-18 14:00 36.077413 -115.161265 181 2189ft 0kts
07-Aug-18 14:01 36.076708 -115.161264 178 2189ft 4kts
07-Aug-18 14:02 36.076400 -115.161028 92 2189ft 3kts
07-Aug-18 14:03 36.076442 -115.128433 88 2191ft 175kts
07-Aug-18 14:04 36.076280 -115.079203 87 3405ft 195kts
07-Aug-18 14:05 36.077001 -115.004702 91 5012ft 243kts
07-Aug-18 14:06 36.046225 -114.927834 149 6902ft 274kts
07-Aug-18 14:07 35.973192 -114.909962 184 9522ft 270kts
07-Aug-18 14:08 35.907391 -114.964826 225 10789ft 315kts
07-Aug-18 14:09 35.845267 -115.043120 228 13004ft 326kts
07-Aug-18 14:10 35.827011 -115.150535 274 15197ft 339kts
07-Aug-18 14:11 35.837210 -115.267329 275 17309ft 349kts
07-Aug-18 14:12 35.847498 -115.387282 275 19318ft 358kts
07-Aug-18 14:13 35.857907 -115.510662 276 21186ft 365kts
07-Aug-18 14:14 35.868336 -115.636053 276 22848ft 373kts
07-Aug-18 14:15 35.878306 -115.757942 275 23793ft 378kts
07-Aug-18 14:16 35.888756 -115.887471 275 24442ft 381kts
07-Aug-18 14:17 35.925867 -116.005503 311 25420ft 375kts
07-Aug-18 14:18 36.001867 -116.094435 315 25690ft 386kts
07-Aug-18 14:19 36.080237 -116.184450 315 26510ft 385kts
07-Aug-18 14:20 36.157046 -116.272993 315 27741ft 377kts
07-Aug-18 14:21 36.232769 -116.360634 314 29215ft 370kts
07-Aug-18 14:22 36.306550 -116.446316 314 30663ft 360kts
07-Aug-18 14:23 36.378075 -116.529649 314 32112ft 347kts
07-Aug-18 14:24 36.446483 -116.609437 314 33541ft 329kts
07-Aug-18 14:25 36.512222 -116.686274 313 33992ft 338kts
07-Aug-18 14:26 36.585084 -116.765695 324 34014ft 361kts
07-Aug-18 14:27 36.672492 -116.831719 325 33996ft 377kts
07-Aug-18 14:28 36.763527 -116.900574 326 33991ft 389kts
07-Aug-18 14:29 36.857054 -116.971704 326 33994ft 400kts
07-Aug-18 14:30 36.952796 -117.044848 326 33996ft 410kts
07-Aug-18 14:31 37.050776 -117.119930 326 33991ft 419kts
07-Aug-18 14:32 37.149194 -117.195635 326 34163ft 423kts
07-Aug-18 14:33 37.249977 -117.273435 326 34124ft 431kts
07-Aug-18 14:34 37.347149 -117.361022 317 34160ft 434kts
07-Aug-18 14:35 37.439321 -117.460082 317 34167ft 439kts
07-Aug-18 14:36 37.499261 -117.588753 281 34139ft 432kts
07-Aug-18 14:37 37.512728 -117.733846 274 34022ft 431kts
07-Aug-18 14:38 37.524524 -117.883251 274 34022ft 430kts
07-Aug-18 14:39 37.536324 -118.032941 274 34016ft 431kts
07-Aug-18 14:40 37.547995 -118.182882 274 34008ft 431kts
07-Aug-18 14:41 37.559561 -118.333347 275 34018ft 432kts
07-Aug-18 14:42 37.570930 -118.483598 275 34038ft 431kts
07-Aug-18 14:43 37.582076 -118.633531 275 34280ft 430kts
07-Aug-18 14:44 37.592493 -118.776350 274 34278ft 432kts
07-Aug-18 14:45 37.603234 -118.927027 274 34284ft 433kts
07-Aug-18 14:46 37.613909 -119.077260 274 34282ft 433kts
07-Aug-18 14:47 37.624383 -119.228293 274 34283ft 433kts
07-Aug-18 14:48 37.634698 -119.380086 274 34279ft 436kts
07-Aug-18 14:49 37.644843 -119.531794 274 34287ft 435kts
07-Aug-18 14:50 37.654534 -119.679417 273 34270ft 435kts
07-Aug-18 14:51 37.664171 -119.830123 274 33998ft 437kts
07-Aug-18 14:52 37.673710 -119.982312 274 33628ft 438kts
07-Aug-18 14:53 37.683133 -120.135333 274 32640ft 440kts
07-Aug-18 14:54 37.692383 -120.288144 274 31137ft 443kts
07-Aug-18 14:55 37.696366 -120.438040 262 28547ft 414kts
07-Aug-18 14:56 37.679877 -120.577647 261 26909ft 400kts
07-Aug-18 14:57 37.664038 -120.710872 261 26898ft 408kts
07-Aug-18 14:58 37.647365 -120.849391 261 24243ft 404kts
07-Aug-18 14:59 37.630699 -120.985160 260 20465ft 390kts
07-Aug-18 15:00 37.613145 -121.115831 260 16846ft 369kts
07-Aug-18 15:01 37.596637 -121.238713 259 14623ft 354kts
07-Aug-18 15:02 37.581918 -121.359961 262 12586ft 345kts
07-Aug-18 15:03 37.568277 -121.477916 262 11225ft 333kts
07-Aug-18 15:04 37.555315 -121.589459 262 10292ft 309kts
07-Aug-18 15:05 37.538619 -121.683519 252 9322ft 284kts
07-Aug-18 15:06 37.517211 -121.770011 254 8267ft 279kts
07-Aug-18 15:07 37.501058 -121.836344 254 7954ft 243kts
07-Aug-18 15:08 37.487068 -121.891376 253 7701ft 206kts
07-Aug-18 15:09 37.474014 -121.940364 253 6899ft 197kts
07-Aug-18 15:10 37.463147 -122.001746 295 5975ft 184kts
07-Aug-18 15:11 37.486219 -122.060582 298 5024ft 176kts
07-Aug-18 15:12 37.509334 -122.115835 299 4320ft 177kts
07-Aug-18 15:13 37.532213 -122.169770 299 3394ft 176kts
07-Aug-18 15:14 37.554919 -122.223585 299 2428ft 173kts
07-Aug-18 15:15 37.576414 -122.274667 301 1501ft 140kts
07-Aug-18 15:16 37.593866 -122.315879 297 786ft 131kts
07-Aug-18 15:17 37.610675 -122.355951 296 122ft 127kts
07-Aug-18 15:18 37.619874 -122.377857 296 21ft 11kts
07-Aug-18 15:19 37.619620 -122.379321 219 21ft 0kts
07-Aug-18 15:20 37.619041 -122.379357 175 20ft 2kts
07-Aug-18 15:21 37.616394 -122.379780 206 21ft 11kts
07-Aug-18 15:22 37.613190 -122.381917 207 21ft 9kts
07-Aug-18 15:23 37.610593 -122.383718 228 21ft 9kts
07-Aug-18 15:24 37.611824 -122.384756 5 21ft 8kts
07-Aug-18 15:25 37.612535 -122.384677 3 21ft 3kts
07-Aug-18 15:26 37.612635 -122.384671 2 21ft 0kts
07-Aug-18 15:27 37.612635 -122.384671 2 21ft 0kts
07-Aug-18 15:28 37.612635 -122.384671 2 21ft 0kts
07-Aug-18 15:29 37.612635 -122.384671 2 21ft 0kts
07-Aug-18 15:30 37.612635 -122.384671 2 21ft 0kts
07-Aug-18 15:31 37.612635 -122.384671 2 21ft 0kts
07-Aug-18 15:32 37.612635 -122.384671 2 21ft 0kts

Navigation Log

Ident Type
Flight plan parsing failed, navigation log unavailable